sensor_id;sensor_type;location;lat;lon;timestamp;temperature;humidity
2543;DHT22;1116;51.502;7.414;2023-12-28T00:05:01;9.40;72.90
2543;DHT22;1116;51.502;7.414;2023-12-28T00:07:31;9.30;78.40
2543;DHT22;1116;51.502;7.414;2023-12-28T00:10:01;9.30;82.60
2543;DHT22;1116;51.502;7.414;2023-12-28T00:12:31;9.30;91.00
2543;DHT22;1116;51.502;7.414;2023-12-28T00:15:03;9.30;92.30
2543;DHT22;1116;51.502;7.414;2023-12-28T00:17:33;9.30;96.50
2543;DHT22;1116;51.502;7.414;2023-12-28T00:20:07;9.30;99.90
2543;DHT22;1116;51.502;7.414;2023-12-28T00:22:37;9.30;99.90
2543;DHT22;1116;51.502;7.414;2023-12-28T00:25:07;9.20;99.90
2543;DHT22;1116;51.502;7.414;2023-12-28T00:27:37;9.20;99.90
2543;DHT22;1116;51.502;7.414;2023-12-28T00:30:08;9.20;99.90
2543;DHT22;1116;51.502;7.414;2023-12-28T00:32:38;9.20;99.90
2543;DHT22;1116;51.502;7.414;2023-12-28T00:35:22;9.20;99.90
2543;DHT22;1116;51.502;7.414;2023-12-28T00:37:52;9.20;99.90
2543;DHT22;1116;51.502;7.414;2023-12-28T00:40:22;9.20;99.90
2543;DHT22;1116;51.502;7.414;2023-12-28T00:42:52;9.20;99.90
2543;DHT22;1116;51.502;7.414;2023-12-28T00:45:22;9.10;99.90
2543;DHT22;1116;51.502;7.414;2023-12-28T00:47:52;9.00;99.90
2543;DHT22;1116;51.502;7.414;2023-12-28T00:50:27;9.00;99.90
2543;DHT22;1116;51.502;7.414;2023-12-28T00:53:03;9.00;99.90
2543;DHT22;1116;51.502;7.414;2023-12-28T00:55:33;9.00;99.90
2543;DHT22;1116;51.502;7.414;2023-12-28T00:58:00;8.90;99.90
2543;DHT22;1116;51.502;7.414;2023-12-28T01:00:30;9.00;99.90
2543;DHT22;1116;51.502;7.414;2023-12-28T01:03:05;9.00;99.90
2543;DHT22;1116;51.502;7.414;2023-12-28T01:05:37;9.00;99.90
2543;DHT22;1116;51.502;7.414;2023-12-28T01:08:09;9.00;99.90
2543;DHT22;1116;51.502;7.414;2023-12-28T01:10:38;9.10;99.90
2543;DHT22;1116;51.502;7.414;2023-12-28T01:13:08;9.10;99.90
2543;DHT22;1116;51.502;7.414;2023-12-28T01:15:38;9.10;99.90
2543;DHT22;1116;51.502;7.414;2023-12-28T01:18:08;9.00;99.90
2543;DHT22;1116;51.502;7.414;2023-12-28T01:20:41;9.10;99.90
2543;DHT22;1116;51.502;7.414;2023-12-28T01:23:17;9.20;99.90
2543;DHT22;1116;51.502;7.414;2023-12-28T01:25:47;9.20;99.90
2543;DHT22;1116;51.502;7.414;2023-12-28T01:28:17;9.20;99.90
2543;DHT22;1116;51.502;7.414;2023-12-28T01:30:47;9.20;99.90
2543;DHT22;1116;51.502;7.414;2023-12-28T01:33:20;9.30;99.90
2543;DHT22;1116;51.502;7.414;2023-12-28T01:35:53;9.30;99.90
2543;DHT22;1116;51.502;7.414;2023-12-28T01:38:23;9.30;99.90
2543;DHT22;1116;51.502;7.414;2023-12-28T01:41:01;9.30;99.90
2543;DHT22;1116;51.502;7.414;2023-12-28T01:43:34;9.70;99.90
2543;DHT22;1116;51.502;7.414;2023-12-28T01:46:16;9.40;99.90
2543;DHT22;1116;51.502;7.414;2023-12-28T01:48:49;9.50;99.90
2543;DHT22;1116;51.502;7.414;2023-12-28T01:51:25;9.50;99.90
2543;DHT22;1116;51.502;7.414;2023-12-28T01:53:55;9.50;99.90
2543;DHT22;1116;51.502;7.414;2023-12-28T01:56:27;9.60;99.90
2543;DHT22;1116;51.502;7.414;2023-12-28T01:58:58;9.60;99.90
2543;DHT22;1116;51.502;7.414;2023-12-28T02:01:45;9.70;99.90
2543;DHT22;1116;51.502;7.414;2023-12-28T02:04:18;9.70;99.90
2543;DHT22;1116;51.502;7.414;2023-12-28T02:07:00;9.80;99.90
2543;DHT22;1116;51.502;7.414;2023-12-28T02:09:32;9.90;99.90
2543;DHT22;1116;51.502;7.414;2023-12-28T02:12:03;9.90;99.90
2543;DHT22;1116;51.502;7.414;2023-12-28T02:14:33;10.00;99.90
2543;DHT22;1116;51.502;7.414;2023-12-28T02:17:22;10.00;99.90
2543;DHT22;1116;51.502;7.414;2023-12-28T02:19:54;10.00;99.90
2543;DHT22;1116;51.502;7.414;2023-12-28T02:22:28;10.10;99.90
2543;DHT22;1116;51.502;7.414;2023-12-28T02:25:10;10.10;99.90
2543;DHT22;1116;51.502;7.414;2023-12-28T02:27:46;10.10;99.90
2543;DHT22;1116;51.502;7.414;2023-12-28T02:30:18;10.10;99.90
2543;DHT22;1116;51.502;7.414;2023-12-28T02:32:58;10.40;99.90
2543;DHT22;1116;51.502;7.414;2023-12-28T02:35:36;10.20;99.90
2543;DHT22;1116;51.502;7.414;2023-12-28T02:38:09;10.40;99.90
2543;DHT22;1116;51.502;7.414;2023-12-28T02:40:43;10.20;99.90
2543;DHT22;1116;51.502;7.414;2023-12-28T02:43:16;10.30;99.90
2543;DHT22;1116;51.502;7.414;2023-12-28T02:45:46;10.30;99.90
2543;DHT22;1116;51.502;7.414;2023-12-28T02:48:17;10.20;99.90
2543;DHT22;1116;51.502;7.414;2023-12-28T02:50:47;10.30;99.90
2543;DHT22;1116;51.502;7.414;2023-12-28T02:53:17;10.30;99.90
2543;DHT22;1116;51.502;7.414;2023-12-28T02:55:49;10.40;99.90
2543;DHT22;1116;51.502;7.414;2023-12-28T02:58:20;10.40;98.50
2543;DHT22;1116;51.502;7.414;2023-12-28T03:00:49;10.40;97.00
2543;DHT22;1116;51.502;7.414;2023-12-28T03:03:20;10.40;95.80
2543;DHT22;1116;51.502;7.414;2023-12-28T03:05:54;10.50;94.50
2543;DHT22;1116;51.502;7.414;2023-12-28T03:08:24;10.50;94.20
2543;DHT22;1116;51.502;7.414;2023-12-28T03:10:57;10.50;93.70
2543;DHT22;1116;51.502;7.414;2023-12-28T03:13:26;10.50;94.40
2543;DHT22;1116;51.502;7.414;2023-12-28T03:15:56;10.50;94.30
2543;DHT22;1116;51.502;7.414;2023-12-28T03:18:26;10.40;94.00
2543;DHT22;1116;51.502;7.414;2023-12-28T03:20:56;10.40;94.50
2543;DHT22;1116;51.502;7.414;2023-12-28T03:23:26;10.40;94.20
2543;DHT22;1116;51.502;7.414;2023-12-28T03:26:02;10.30;94.20
2543;DHT22;1116;51.502;7.414;2023-12-28T03:28:51;10.40;93.60
2543;DHT22;1116;51.502;7.414;2023-12-28T03:31:21;10.30;93.40
2543;DHT22;1116;51.502;7.414;2023-12-28T03:33:59;10.40;93.70
2543;DHT22;1116;51.502;7.414;2023-12-28T03:36:29;10.30;93.70
2543;DHT22;1116;51.502;7.414;2023-12-28T03:38:59;10.40;93.10
2543;DHT22;1116;51.502;7.414;2023-12-28T03:41:33;10.40;93.10
2543;DHT22;1116;51.502;7.414;2023-12-28T03:44:07;10.40;93.00
2543;DHT22;1116;51.502;7.414;2023-12-28T03:46:37;10.40;93.00
2543;DHT22;1116;51.502;7.414;2023-12-28T03:49:07;10.40;92.80
2543;DHT22;1116;51.502;7.414;2023-12-28T03:51:37;10.40;92.70
2543;DHT22;1116;51.502;7.414;2023-12-28T03:54:07;10.40;92.90
2543;DHT22;1116;51.502;7.414;2023-12-28T03:56:39;10.30;93.10
2543;DHT22;1116;51.502;7.414;2023-12-28T03:59:14;10.40;93.00
2543;DHT22;1116;51.502;7.414;2023-12-28T04:01:45;10.40;93.00
2543;DHT22;1116;51.502;7.414;2023-12-28T04:04:25;10.40;92.50
2543;DHT22;1116;51.502;7.414;2023-12-28T04:06:55;10.40;92.10
2543;DHT22;1116;51.502;7.414;2023-12-28T04:09:27;10.50;91.20
2543;DHT22;1116;51.502;7.414;2023-12-28T04:12:00;10.50;91.00
2543;DHT22;1116;51.502;7.414;2023-12-28T04:14:29;10.40;90.90
2543;DHT22;1116;51.502;7.414;2023-12-28T04:16:59;10.40;89.80
2543;DHT22;1116;51.502;7.414;2023-12-28T04:19:30;10.50;87.50
2543;DHT22;1116;51.502;7.414;2023-12-28T04:22:11;10.50;86.00
2543;DHT22;1116;51.502;7.414;2023-12-28T04:24:41;10.50;86.90
2543;DHT22;1116;51.502;7.414;2023-12-28T04:27:13;10.50;85.00
2543;DHT22;1116;51.502;7.414;2023-12-28T04:29:43;10.50;85.20
2543;DHT22;1116;51.502;7.414;2023-12-28T04:32:19;10.50;82.70
2543;DHT22;1116;51.502;7.414;2023-12-28T04:34:51;10.50;82.70
2543;DHT22;1116;51.502;7.414;2023-12-28T04:37:24;10.50;80.40
2543;DHT22;1116;51.502;7.414;2023-12-28T04:39:54;10.50;79.90
2543;DHT22;1116;51.502;7.414;2023-12-28T04:42:33;10.60;78.50
2543;DHT22;1116;51.502;7.414;2023-12-28T04:45:04;10.60;76.30
2543;DHT22;1116;51.502;7.414;2023-12-28T09:52:20;11.30;32.90
2543;DHT22;1116;51.502;7.414;2023-12-28T09:54:50;11.40;32.30
2543;DHT22;1116;51.502;7.414;2023-12-28T09:57:20;11.30;31.00
2543;DHT22;1116;51.502;7.414;2023-12-28T09:59:51;11.40;32.10
2543;DHT22;1116;51.502;7.414;2023-12-28T10:02:21;11.50;32.50
2543;DHT22;1116;51.502;7.414;2023-12-28T10:04:52;11.80;32.20
2543;DHT22;1116;51.502;7.414;2023-12-28T10:07:26;11.40;31.40
2543;DHT22;1116;51.502;7.414;2023-12-28T10:09:56;11.40;30.70
2543;DHT22;1116;51.502;7.414;2023-12-28T10:12:27;11.40;31.20
2543;DHT22;1116;51.502;7.414;2023-12-28T10:14:57;11.40;30.60
2543;DHT22;1116;51.502;7.414;2023-12-28T10:17:27;11.40;30.20
2543;DHT22;1116;51.502;7.414;2023-12-28T10:19:58;11.40;29.80
2543;DHT22;1116;51.502;7.414;2023-12-28T10:22:34;11.40;30.10
2543;DHT22;1116;51.502;7.414;2023-12-28T10:25:04;11.50;31.00
2543;DHT22;1116;51.502;7.414;2023-12-28T10:27:42;11.50;30.00
2543;DHT22;1116;51.502;7.414;2023-12-28T10:30:12;11.50;29.70
2543;DHT22;1116;51.502;7.414;2023-12-28T10:32:43;11.60;29.70
2543;DHT22;1116;51.502;7.414;2023-12-28T10:35:22;11.60;29.70
2543;DHT22;1116;51.502;7.414;2023-12-28T10:38:00;11.60;28.70
2543;DHT22;1116;51.502;7.414;2023-12-28T10:40:59;11.60;28.50
2543;DHT22;1116;51.502;7.414;2023-12-28T10:43:40;11.70;28.40
2543;DHT22;1116;51.502;7.414;2023-12-28T10:46:40;11.60;28.50
2543;DHT22;1116;51.502;7.414;2023-12-28T10:49:25;11.60;28.00
2543;DHT22;1116;51.502;7.414;2023-12-28T10:52:05;11.60;27.80
2543;DHT22;1116;51.502;7.414;2023-12-28T10:54:50;11.60;27.50
2543;DHT22;1116;51.502;7.414;2023-12-28T10:57:29;11.70;27.50
2543;DHT22;1116;51.502;7.414;2023-12-28T11:00:08;11.60;27.20
2543;DHT22;1116;51.502;7.414;2023-12-28T11:02:44;12.00;27.70
2543;DHT22;1116;51.502;7.414;2023-12-28T11:05:16;11.60;27.10
2543;DHT22;1116;51.502;7.414;2023-12-28T11:07:50;11.60;27.00
2543;DHT22;1116;51.502;7.414;2023-12-28T11:10:27;11.60;26.80
2543;DHT22;1116;51.502;7.414;2023-12-28T11:13:00;11.60;27.20
2543;DHT22;1116;51.502;7.414;2023-12-28T11:15:38;11.70;26.80
2543;DHT22;1116;51.502;7.414;2023-12-28T11:18:09;11.70;26.10
2543;DHT22;1116;51.502;7.414;2023-12-28T11:20:39;11.70;26.70
2543;DHT22;1116;51.502;7.414;2023-12-28T11:23:10;11.70;26.80
2543;DHT22;1116;51.502;7.414;2023-12-28T11:25:44;11.80;26.50
2543;DHT22;1116;51.502;7.414;2023-12-28T11:28:17;11.80;25.90
2543;DHT22;1116;51.502;7.414;2023-12-28T11:30:51;11.80;25.40
2543;DHT22;1116;51.502;7.414;2023-12-28T11:33:22;11.80;25.60
2543;DHT22;1116;51.502;7.414;2023-12-28T11:35:52;11.70;25.70
2543;DHT22;1116;51.502;7.414;2023-12-28T11:38:24;11.80;25.70
2543;DHT22;1116;51.502;7.414;2023-12-28T11:40:57;11.80;25.20
2543;DHT22;1116;51.502;7.414;2023-12-28T11:43:35;11.80;25.40
2543;DHT22;1116;51.502;7.414;2023-12-28T11:46:08;11.90;25.40
2543;DHT22;1116;51.502;7.414;2023-12-28T11:48:38;11.90;25.20
2543;DHT22;1116;51.502;7.414;2023-12-28T11:51:08;11.90;25.80
2543;DHT22;1116;51.502;7.414;2023-12-28T11:53:38;12.00;24.50
2543;DHT22;1116;51.502;7.414;2023-12-28T11:56:15;11.90;24.10
2543;DHT22;1116;51.502;7.414;2023-12-28T11:58:45;12.00;23.60
2543;DHT22;1116;51.502;7.414;2023-12-28T12:01:16;12.00;24.20
2543;DHT22;1116;51.502;7.414;2023-12-28T12:03:55;12.00;23.20
2543;DHT22;1116;51.502;7.414;2023-12-28T12:06:25;12.20;22.90
2543;DHT22;1116;51.502;7.414;2023-12-28T12:08:55;12.10;21.80
2543;DHT22;1116;51.502;7.414;2023-12-28T12:11:28;12.10;22.80
2543;DHT22;1116;51.502;7.414;2023-12-28T12:13:58;12.10;21.70
2543;DHT22;1116;51.502;7.414;2023-12-28T12:16:38;12.10;21.70
2543;DHT22;1116;51.502;7.414;2023-12-28T12:19:08;12.20;22.30
2543;DHT22;1116;51.502;7.414;2023-12-28T12:21:38;12.10;21.50
2543;DHT22;1116;51.502;7.414;2023-12-28T12:24:10;12.10;21.10
2543;DHT22;1116;51.502;7.414;2023-12-28T12:26:45;12.10;20.70
2543;DHT22;1116;51.502;7.414;2023-12-28T12:29:16;12.10;20.50
2543;DHT22;1116;51.502;7.414;2023-12-28T12:31:55;12.20;20.60
2543;DHT22;1116;51.502;7.414;2023-12-28T12:34:26;12.20;19.50
2543;DHT22;1116;51.502;7.414;2023-12-28T12:36:56;12.10;19.70
2543;DHT22;1116;51.502;7.414;2023-12-28T12:39:33;12.00;19.30
2543;DHT22;1116;51.502;7.414;2023-12-28T12:42:06;12.10;19.50
2543;DHT22;1116;51.502;7.414;2023-12-28T12:44:36;12.20;19.40
2543;DHT22;1116;51.502;7.414;2023-12-28T12:47:07;12.10;19.30
2543;DHT22;1116;51.502;7.414;2023-12-28T12:49:37;12.20;19.40
2543;DHT22;1116;51.502;7.414;2023-12-28T12:52:15;12.50;19.10
2543;DHT22;1116;51.502;7.414;2023-12-28T12:54:53;12.20;19.20
2543;DHT22;1116;51.502;7.414;2023-12-28T12:57:26;12.20;18.10
2543;DHT22;1116;51.502;7.414;2023-12-28T12:59:56;12.20;17.60
2543;DHT22;1116;51.502;7.414;2023-12-28T13:02:29;12.20;17.90
2543;DHT22;1116;51.502;7.414;2023-12-28T13:04:59;12.30;17.50
2543;DHT22;1116;51.502;7.414;2023-12-28T13:07:31;12.40;17.40
2543;DHT22;1116;51.502;7.414;2023-12-28T13:10:04;12.20;17.10
2543;DHT22;1116;51.502;7.414;2023-12-28T13:12:45;12.20;16.40
2543;DHT22;1116;51.502;7.414;2023-12-28T13:15:15;12.30;16.10
2543;DHT22;1116;51.502;7.414;2023-12-28T13:17:45;12.30;16.90
2543;DHT22;1116;51.502;7.414;2023-12-28T13:20:23;12.20;16.10
2543;DHT22;1116;51.502;7.414;2023-12-28T13:22:53;12.20;16.60
2543;DHT22;1116;51.502;7.414;2023-12-28T13:25:24;12.20;16.40
2543;DHT22;1116;51.502;7.414;2023-12-28T13:27:57;12.20;16.70
2543;DHT22;1116;51.502;7.414;2023-12-28T13:30:27;12.20;16.30
2543;DHT22;1116;51.502;7.414;2023-12-28T13:33:00;12.20;16.00
2543;DHT22;1116;51.502;7.414;2023-12-28T13:35:32;12.20;16.10
2543;DHT22;1116;51.502;7.414;2023-12-28T13:38:03;12.30;16.00
2543;DHT22;1116;51.502;7.414;2023-12-28T13:40:33;12.30;16.10
2543;DHT22;1116;51.502;7.414;2023-12-28T13:43:06;12.20;16.00
2543;DHT22;1116;51.502;7.414;2023-12-28T13:45:37;12.20;16.00
2543;DHT22;1116;51.502;7.414;2023-12-28T13:48:16;12.10;16.40
2543;DHT22;1116;51.502;7.414;2023-12-28T13:50:46;12.10;15.90
2543;DHT22;1116;51.502;7.414;2023-12-28T13:53:18;12.10;15.90
2543;DHT22;1116;51.502;7.414;2023-12-28T13:55:48;12.50;16.20
2543;DHT22;1116;51.502;7.414;2023-12-28T13:58:30;12.30;16.10
2543;DHT22;1116;51.502;7.414;2023-12-28T14:01:00;12.20;16.00
2543;DHT22;1116;51.502;7.414;2023-12-28T14:03:31;12.10;16.70
2543;DHT22;1116;51.502;7.414;2023-12-28T14:06:01;12.10;15.90
2543;DHT22;1116;51.502;7.414;2023-12-28T14:08:32;12.10;16.00
2543;DHT22;1116;51.502;7.414;2023-12-28T14:11:02;12.10;16.20
2543;DHT22;1116;51.502;7.414;2023-12-28T14:13:46;12.00;16.70
2543;DHT22;1116;51.502;7.414;2023-12-28T14:16:16;12.20;16.00
2543;DHT22;1116;51.502;7.414;2023-12-28T14:18:46;12.40;16.70
2543;DHT22;1116;51.502;7.414;2023-12-28T14:21:17;12.40;16.10
2543;DHT22;1116;51.502;7.414;2023-12-28T14:23:47;11.90;16.20
2543;DHT22;1116;51.502;7.414;2023-12-28T14:26:17;11.90;16.30
2543;DHT22;1116;51.502;7.414;2023-12-28T14:28:58;12.00;16.00
2543;DHT22;1116;51.502;7.414;2023-12-28T14:31:31;12.20;16.10
2543;DHT22;1116;51.502;7.414;2023-12-28T14:34:04;12.00;16.50
2543;DHT22;1116;51.502;7.414;2023-12-28T14:36:41;11.90;15.80
2543;DHT22;1116;51.502;7.414;2023-12-28T14:39:13;11.60;16.20
2543;DHT22;1116;51.502;7.414;2023-12-28T14:41:45;11.80;15.80
2543;DHT22;1116;51.502;7.414;2023-12-28T14:44:24;11.90;15.80
2543;DHT22;1116;51.502;7.414;2023-12-28T14:46:54;11.90;15.70
2543;DHT22;1116;51.502;7.414;2023-12-28T14:49:24;11.90;15.70
2543;DHT22;1116;51.502;7.414;2023-12-28T14:51:54;11.80;15.70
2543;DHT22;1116;51.502;7.414;2023-12-28T14:54:25;11.90;15.70
2543;DHT22;1116;51.502;7.414;2023-12-28T14:56:55;12.10;15.40
2543;DHT22;1116;51.502;7.414;2023-12-28T14:59:28;11.80;15.70
2543;DHT22;1116;51.502;7.414;2023-12-28T15:01:58;11.70;15.60
2543;DHT22;1116;51.502;7.414;2023-12-28T15:04:28;11.70;15.60
2543;DHT22;1116;51.502;7.414;2023-12-28T15:06:59;12.00;15.20
2543;DHT22;1116;51.502;7.414;2023-12-28T15:09:35;11.60;15.50
2543;DHT22;1116;51.502;7.414;2023-12-28T15:12:07;11.60;15.10
2543;DHT22;1116;51.502;7.414;2023-12-28T15:14:40;11.60;15.10
2543;DHT22;1116;51.502;7.414;2023-12-28T15:17:11;11.60;14.90
2543;DHT22;1116;51.502;7.414;2023-12-28T15:19:42;11.60;15.40
2543;DHT22;1116;51.502;7.414;2023-12-28T15:22:13;11.60;15.10
2543;DHT22;1116;51.502;7.414;2023-12-28T15:24:44;11.60;14.90
2543;DHT22;1116;51.502;7.414;2023-12-28T15:27:22;11.60;15.50
2543;DHT22;1116;51.502;7.414;2023-12-28T15:29:55;11.50;15.50
2543;DHT22;1116;51.502;7.414;2023-12-28T15:32:25;11.50;15.50
2543;DHT22;1116;51.502;7.414;2023-12-28T15:34:55;11.40;16.00
2543;DHT22;1116;51.502;7.414;2023-12-28T15:37:28;11.50;15.50
2543;DHT22;1116;51.502;7.414;2023-12-28T15:39:58;11.50;15.50
2543;DHT22;1116;51.502;7.414;2023-12-28T15:42:31;11.50;15.50
2543;DHT22;1116;51.502;7.414;2023-12-28T15:45:07;11.40;15.40
2543;DHT22;1116;51.502;7.414;2023-12-28T15:47:40;11.40;15.40
2543;DHT22;1116;51.502;7.414;2023-12-28T15:50:10;11.50;15.40
2543;DHT22;1116;51.502;7.414;2023-12-28T15:52:41;11.50;15.50
2543;DHT22;1116;51.502;7.414;2023-12-28T15:55:12;11.40;15.40
2543;DHT22;1116;51.502;7.414;2023-12-28T15:57:46;11.40;15.50
2543;DHT22;1116;51.502;7.414;2023-12-28T16:00:20;11.70;16.60
2543;DHT22;1116;51.502;7.414;2023-12-28T16:02:50;11.40;15.80
2543;DHT22;1116;51.502;7.414;2023-12-28T16:05:21;11.50;15.50
2543;DHT22;1116;51.502;7.414;2023-12-28T16:07:59;11.30;15.80
2543;DHT22;1116;51.502;7.414;2023-12-28T16:10:29;11.40;15.90
2543;DHT22;1116;51.502;7.414;2023-12-28T16:12:59;11.50;15.90
2543;DHT22;1116;51.502;7.414;2023-12-28T16:15:32;11.40;16.00
2543;DHT22;1116;51.502;7.414;2023-12-28T16:18:12;11.40;16.00
2543;DHT22;1116;51.502;7.414;2023-12-28T16:20:44;11.60;15.60
2543;DHT22;1116;51.502;7.414;2023-12-28T16:23:15;11.50;15.70
2543;DHT22;1116;51.502;7.414;2023-12-28T16:25:48;11.60;15.60
2543;DHT22;1116;51.502;7.414;2023-12-28T16:28:18;11.60;15.70
2543;DHT22;1116;51.502;7.414;2023-12-28T16:30:51;11.60;15.60
2543;DHT22;1116;51.502;7.414;2023-12-28T16:33:21;11.60;15.90
2543;DHT22;1116;51.502;7.414;2023-12-28T16:35:52;11.60;15.80
2543;DHT22;1116;51.502;7.414;2023-12-28T16:38:22;11.50;16.30
2543;DHT22;1116;51.502;7.414;2023-12-28T16:40:52;11.60;17.10
2543;DHT22;1116;51.502;7.414;2023-12-28T16:43:31;11.50;16.60
2543;DHT22;1116;51.502;7.414;2023-12-28T16:46:07;11.70;16.80
2543;DHT22;1116;51.502;7.414;2023-12-28T16:48:38;11.50;16.90
2543;DHT22;1116;51.502;7.414;2023-12-28T16:51:17;11.50;17.60
2543;DHT22;1116;51.502;7.414;2023-12-28T16:53:47;11.40;17.50
2543;DHT22;1116;51.502;7.414;2023-12-28T16:56:17;11.40;17.60
2543;DHT22;1116;51.502;7.414;2023-12-28T16:58:54;11.40;17.70
2543;DHT22;1116;51.502;7.414;2023-12-28T17:01:27;11.50;17.80
2543;DHT22;1116;51.502;7.414;2023-12-28T17:03:57;11.70;18.20
2543;DHT22;1116;51.502;7.414;2023-12-28T17:06:28;11.50;17.60
2543;DHT22;1116;51.502;7.414;2023-12-28T17:09:09;11.30;17.40
2543;DHT22;1116;51.502;7.414;2023-12-28T17:11:41;11.50;17.50
2543;DHT22;1116;51.502;7.414;2023-12-28T17:14:15;11.50;17.50
2543;DHT22;1116;51.502;7.414;2023-12-28T17:16:48;11.50;17.50
2543;DHT22;1116;51.502;7.414;2023-12-28T17:19:21;11.50;17.40
2543;DHT22;1116;51.502;7.414;2023-12-28T17:21:52;11.50;18.10
2543;DHT22;1116;51.502;7.414;2023-12-28T17:24:24;11.80;18.50
2543;DHT22;1116;51.502;7.414;2023-12-28T17:27:02;11.50;17.60
2543;DHT22;1116;51.502;7.414;2023-12-28T17:29:35;11.50;17.80
2543;DHT22;1116;51.502;7.414;2023-12-28T17:32:12;11.50;18.10
2543;DHT22;1116;51.502;7.414;2023-12-28T17:34:44;11.50;18.20
2543;DHT22;1116;51.502;7.414;2023-12-28T17:37:15;11.50;18.10
2543;DHT22;1116;51.502;7.414;2023-12-28T17:39:46;11.50;18.20
2543;DHT22;1116;51.502;7.414;2023-12-28T17:42:23;11.50;18.30
2543;DHT22;1116;51.502;7.414;2023-12-28T17:44:59;11.50;18.60
2543;DHT22;1116;51.502;7.414;2023-12-28T17:47:50;11.50;18.30
2543;DHT22;1116;51.502;7.414;2023-12-28T17:50:24;11.50;18.60
2543;DHT22;1116;51.502;7.414;2023-12-28T17:52:55;11.50;18.70
2543;DHT22;1116;51.502;7.414;2023-12-28T17:55:26;11.40;18.40
2543;DHT22;1116;51.502;7.414;2023-12-28T17:57:56;11.70;18.80
2543;DHT22;1116;51.502;7.414;2023-12-28T18:00:27;11.50;18.30
2543;DHT22;1116;51.502;7.414;2023-12-28T18:03:00;11.50;18.80
2543;DHT22;1116;51.502;7.414;2023-12-28T18:05:38;11.40;18.40
2543;DHT22;1116;51.502;7.414;2023-12-28T18:08:08;11.40;18.80
2543;DHT22;1116;51.502;7.414;2023-12-28T18:10:39;11.30;18.10
2543;DHT22;1116;51.502;7.414;2023-12-28T18:13:09;11.30;18.70
2543;DHT22;1116;51.502;7.414;2023-12-28T18:15:39;11.20;18.80
2543;DHT22;1116;51.502;7.414;2023-12-28T18:18:15;11.30;18.60
2543;DHT22;1116;51.502;7.414;2023-12-28T18:20:46;11.30;18.60
2543;DHT22;1116;51.502;7.414;2023-12-28T18:23:17;11.20;18.10
2543;DHT22;1116;51.502;7.414;2023-12-28T18:25:48;11.30;18.50
2543;DHT22;1116;51.502;7.414;2023-12-28T18:28:24;11.20;18.40
2543;DHT22;1116;51.502;7.414;2023-12-28T18:30:54;11.20;18.40
2543;DHT22;1116;51.502;7.414;2023-12-28T18:33:27;11.40;18.90
2543;DHT22;1116;51.502;7.414;2023-12-28T18:35:57;11.20;18.70
2543;DHT22;1116;51.502;7.414;2023-12-28T18:38:29;11.20;18.90
2543;DHT22;1116;51.502;7.414;2023-12-28T18:40:59;11.20;19.60
2543;DHT22;1116;51.502;7.414;2023-12-28T18:43:37;11.10;18.80
2543;DHT22;1116;51.502;7.414;2023-12-28T18:46:06;11.10;19.40
2543;DHT22;1116;51.502;7.414;2023-12-28T18:48:39;11.10;18.60
2543;DHT22;1116;51.502;7.414;2023-12-28T18:51:11;11.00;18.90
2543;DHT22;1116;51.502;7.414;2023-12-28T18:53:41;11.10;18.70
2543;DHT22;1116;51.502;7.414;2023-12-28T18:56:13;11.10;18.50
2543;DHT22;1116;51.502;7.414;2023-12-28T18:58:43;11.10;18.50
2543;DHT22;1116;51.502;7.414;2023-12-28T19:01:13;11.20;18.80
2543;DHT22;1116;51.502;7.414;2023-12-28T19:03:47;11.10;18.10
2543;DHT22;1116;51.502;7.414;2023-12-28T19:06:24;11.10;18.40
2543;DHT22;1116;51.502;7.414;2023-12-28T19:08:54;11.00;18.60
2543;DHT22;1116;51.502;7.414;2023-12-28T19:11:30;11.30;19.00
2543;DHT22;1116;51.502;7.414;2023-12-28T19:14:01;11.10;18.80
2543;DHT22;1116;51.502;7.414;2023-12-28T19:16:39;11.10;18.40
2543;DHT22;1116;51.502;7.414;2023-12-28T19:19:12;11.10;18.60
2543;DHT22;1116;51.502;7.414;2023-12-28T19:21:42;11.20;18.70
2543;DHT22;1116;51.502;7.414;2023-12-28T19:24:12;11.20;18.20
2543;DHT22;1116;51.502;7.414;2023-12-28T19:26:42;11.10;18.90
2543;DHT22;1116;51.502;7.414;2023-12-28T19:29:17;11.20;18.60
2543;DHT22;1116;51.502;7.414;2023-12-28T19:31:54;11.10;18.50
2543;DHT22;1116;51.502;7.414;2023-12-28T19:34:29;11.10;18.50
2543;DHT22;1116;51.502;7.414;2023-12-28T19:36:59;11.10;18.60
2543;DHT22;1116;51.502;7.414;2023-12-28T19:39:32;11.10;18.20
2543;DHT22;1116;51.502;7.414;2023-12-28T19:42:05;11.10;18.00
2543;DHT22;1116;51.502;7.414;2023-12-28T19:44:35;11.10;18.50
2543;DHT22;1116;51.502;7.414;2023-12-28T19:47:05;11.10;18.50
2543;DHT22;1116;51.502;7.414;2023-12-28T19:49:38;11.20;18.50
2543;DHT22;1116;51.502;7.414;2023-12-28T19:52:08;11.40;18.60
2543;DHT22;1116;51.502;7.414;2023-12-28T19:54:38;11.10;18.60
2543;DHT22;1116;51.502;7.414;2023-12-28T19:57:08;11.00;18.20
2543;DHT22;1116;51.502;7.414;2023-12-28T19:59:38;11.10;19.20
2543;DHT22;1116;51.502;7.414;2023-12-28T20:02:08;10.90;19.30
2543;DHT22;1116;51.502;7.414;2023-12-28T20:04:42;11.00;18.80
2543;DHT22;1116;51.502;7.414;2023-12-28T20:07:22;11.10;18.80
2543;DHT22;1116;51.502;7.414;2023-12-28T20:09:52;11.10;18.70
2543;DHT22;1116;51.502;7.414;2023-12-28T20:12:23;11.10;18.20
2543;DHT22;1116;51.502;7.414;2023-12-28T20:14:53;11.10;18.40
2543;DHT22;1116;51.502;7.414;2023-12-28T20:17:23;11.20;18.50
2543;DHT22;1116;51.502;7.414;2023-12-28T20:19:56;11.20;18.80
2543;DHT22;1116;51.502;7.414;2023-12-28T20:22:33;11.10;18.30
2543;DHT22;1116;51.502;7.414;2023-12-28T20:25:03;11.10;19.30
2543;DHT22;1116;51.502;7.414;2023-12-28T20:27:34;11.10;19.60
2543;DHT22;1116;51.502;7.414;2023-12-28T20:30:05;11.10;19.50
2543;DHT22;1116;51.502;7.414;2023-12-28T20:32:48;11.00;19.50
2543;DHT22;1116;51.502;7.414;2023-12-28T20:35:21;11.00;19.70
2543;DHT22;1116;51.502;7.414;2023-12-28T20:37:51;11.00;19.60
2543;DHT22;1116;51.502;7.414;2023-12-28T20:40:21;11.10;19.50
2543;DHT22;1116;51.502;7.414;2023-12-28T20:42:51;11.10;19.50
2543;DHT22;1116;51.502;7.414;2023-12-28T20:45:21;11.00;19.70
2543;DHT22;1116;51.502;7.414;2023-12-28T20:47:51;11.00;19.80
2543;DHT22;1116;51.502;7.414;2023-12-28T20:50:24;11.00;19.90
2543;DHT22;1116;51.502;7.414;2023-12-28T20:53:04;10.90;20.00
2543;DHT22;1116;51.502;7.414;2023-12-28T20:55:44;11.00;20.20
2543;DHT22;1116;51.502;7.414;2023-12-28T20:58:22;10.90;20.10
2543;DHT22;1116;51.502;7.414;2023-12-28T21:00:52;10.90;20.10
2543;DHT22;1116;51.502;7.414;2023-12-28T21:03:22;10.90;20.00
2543;DHT22;1116;51.502;7.414;2023-12-28T21:05:55;10.90;20.30
2543;DHT22;1116;51.502;7.414;2023-12-28T21:08:25;10.90;20.20
2543;DHT22;1116;51.502;7.414;2023-12-28T21:10:56;10.90;20.20
2543;DHT22;1116;51.502;7.414;2023-12-28T21:13:27;10.90;20.20
2543;DHT22;1116;51.502;7.414;2023-12-28T21:16:04;10.90;20.40
2543;DHT22;1116;51.502;7.414;2023-12-28T21:18:40;11.00;21.00
2543;DHT22;1116;51.502;7.414;2023-12-28T21:21:13;11.20;20.50
2543;DHT22;1116;51.502;7.414;2023-12-28T21:23:43;11.00;20.60
2543;DHT22;1116;51.502;7.414;2023-12-28T21:26:15;11.00;20.50
2543;DHT22;1116;51.502;7.414;2023-12-28T21:28:45;10.80;20.40
2543;DHT22;1116;51.502;7.414;2023-12-28T21:31:15;10.90;20.70
2543;DHT22;1116;51.502;7.414;2023-12-28T21:33:52;10.90;20.60
2543;DHT22;1116;51.502;7.414;2023-12-28T21:36:39;10.80;20.80
2543;DHT22;1116;51.502;7.414;2023-12-28T21:39:10;10.90;21.00
2543;DHT22;1116;51.502;7.414;2023-12-28T21:41:41;10.90;21.10
2543;DHT22;1116;51.502;7.414;2023-12-28T21:44:12;10.90;21.40
2543;DHT22;1116;51.502;7.414;2023-12-28T21:46:42;10.90;21.30
2543;DHT22;1116;51.502;7.414;2023-12-28T21:49:12;10.90;22.10